Gure Gaskuna — ECNV — position and weather

sailwx.info

Track history (hours):
 
Tides and Currents Weather Stations Pressure Air Temp Water Temp Dewpoint Dewpoint Depression Visibility Wind Speed Wind Dir Waves Ship Positions

Gure Gaskuna

Last reported at 2018-Jul-01 14:30 UTC. Time now 2018-Jul-18 22:22 UTC.
Position N 43°20' W 002°25'.
Warning: this ship's position is 17 days out of date.

Length 39 m.

Type: Other ship. MMSI: 224404000.

Date/timePositionNaut miles runAvg speedWind from/ knotsBaromVisibWave heightAir tempDewpointWater temp
2018-Jul-01 14:30N 43°20' W 002°25'1 2.7
2018-Jul-01 14:00N 43°21' W 002°25'4 8.6
2018-Jul-01 13:30N 43°26' W 002°25'4 8.8
2018-Jul-01 13:00N 43°30' W 002°25'4 8.9
2018-Jul-01 12:30N 43°34' W 002°25'4 8.5
2018-Jul-01 12:00N 43°39' W 002°25'4 8.2
2018-Jul-01 11:30N 43°43' W 002°25'4 8.2
2018-Jul-01 11:00N 43°47' W 002°25'4 8.1
2018-Jul-01 10:30N 43°51' W 002°25'4 8.4
2018-Jul-01 10:00N 43°55' W 002°24'5 9.5
2018-Jul-01 09:30N 43°60' W 002°24'510.4
2018-Jul-01 09:00N 44°05' W 002°23'510.7
2018-Jul-01 08:30N 44°10' W 002°23'510.9
2018-Jul-01 08:00N 44°16' W 002°22'610.7
2018-Jul-01 07:29N 44°21' W 002°22'54 7.8
2018-Jul-01 00:34N 45°15' W 002°30'8 3.2
2018-Jun-30 22:05N 45°20' W 002°39'0 3.6
2018-Jun-30 22:00N 45°20' W 002°40'8 3.7
2018-Jun-30 19:54N 45°24' W 002°49'17 1.3
2018-Jun-30 07:12N 45°37' W 003°03'34 1.1
2018-Jun-29 01:48N 45°55' W 003°44'14 0.7
2018-Jun-28 04:43N 46°04' W 003°30'35 1.3
2018-Jun-27 01:00N 45°33' W 003°08'53 2.3
2018-Jun-26 01:20N 44°53' W 002°17'1310.1
2018-Jun-26 00:05N 44°41' W 002°19'910.3
2018-Jun-25 23:15N 44°32' W 002°20'310.2
2018-Jun-25 22:59N 44°29' W 002°20'510.2
2018-Jun-25 22:30N 44°24' W 002°21'510.2
2018-Jun-25 22:00N 44°19' W 002°21'510.0
2018-Jun-25 21:30N 44°14' W 002°22'5 9.9
2018-Jun-25 21:00N 44°09' W 002°23'5 9.9
2018-Jun-25 20:30N 44°05' W 002°23'5 9.8
2018-Jun-25 20:00N 43°60' W 002°24'510.0
2018-Jun-25 19:30N 43°55' W 002°24'5 9.9
2018-Jun-25 19:00N 43°50' W 002°24'5 9.8
2018-Jun-25 18:30N 43°45' W 002°24'5 9.8
2018-Jun-25 18:00N 43°40' W 002°24'5 9.9
2018-Jun-25 17:30N 43°35' W 002°24'510.1
2018-Jun-25 17:00N 43°30' W 002°25'510.5
2018-Jun-25 16:30N 43°25' W 002°25'5 0.2
2018-Jun-24 08:25N 43°20' W 002°25'1 1.8
2018-Jun-24 08:00N 43°20' W 002°25'5 9.6
2018-Jun-24 07:30N 43°25' W 002°24'510.3
2018-Jun-24 07:01N 43°30' W 002°22'510.3
2018-Jun-24 06:31N 43°35' W 002°21'510.4
2018-Jun-24 06:00N 43°40' W 002°20'510.3
2018-Jun-24 05:31N 43°45' W 002°19'510.1
2018-Jun-24 05:01N 43°50' W 002°18'5 9.6
2018-Jun-24 04:31N 43°55' W 002°17'5 9.5
2018-Jun-24 04:00N 43°60' W 002°16'5 9.6
2018-Jun-24 03:30N 44°04' W 002°14'5 9.6
2018-Jun-24 03:01N 44°09' W 002°13'5 9.6
2018-Jun-24 02:31N 44°14' W 002°12'5 9.7
2018-Jun-24 02:00N 44°19' W 002°11'5 9.7
2018-Jun-24 01:31N 44°23' W 002°10'5 9.6
2018-Jun-24 01:01N 44°28' W 002°09'5 9.8
2018-Jun-24 00:31N 44°33' W 002°07'510.0
2018-Jun-24 00:00N 44°38' W 002°06'510.0
2018-Jun-23 23:31N 44°43' W 002°05'5 9.9
2018-Jun-23 23:00N 44°48' W 002°03'5 9.9
2018-Jun-23 22:31N 44°52' W 002°02'3 5.4
2018-Jun-23 22:00N 44°55' W 002°02'20 4.2
2018-Jun-23 17:14N 45°12' W 002°17'1 3.6
2018-Jun-23 16:52N 45°13' W 002°19'2 3.6
2018-Jun-23 16:25N 45°13' W 002°21'2 3.6
2018-Jun-23 15:46N 45°14' W 002°24'1 3.6
2018-Jun-23 15:25N 45°15' W 002°26'  
Track history (hours):
 
Tides and Currents Weather Stations Pressure Air Temp Water Temp Dewpoint Dewpoint Depression Visibility Wind Speed Wind Dir Waves Ship Positions

Gure Gaskuna

Last reported at 2018-Jul-01 14:30 UTC. Time now 2018-Jul-18 22:22 UTC.
Position N 43°20' W 002°25'.
Warning: this ship's position is 17 days out of date.

Length 39 m.

Type: Other ship. MMSI: 224404000.

Date/timePositionNaut miles runAvg speedWind from/ knotsBaromVisibWave heightAir tempDewpointWater temp
2018-Jul-01 14:30N 43°20' W 002°25'1 2.7
2018-Jul-01 14:00N 43°21' W 002°25'4 8.6
2018-Jul-01 13:30N 43°26' W 002°25'4 8.8
2018-Jul-01 13:00N 43°30' W 002°25'4 8.9
2018-Jul-01 12:30N 43°34' W 002°25'4 8.5
2018-Jul-01 12:00N 43°39' W 002°25'4 8.2
2018-Jul-01 11:30N 43°43' W 002°25'4 8.2
2018-Jul-01 11:00N 43°47' W 002°25'4 8.1
2018-Jul-01 10:30N 43°51' W 002°25'4 8.4
2018-Jul-01 10:00N 43°55' W 002°24'5 9.5
2018-Jul-01 09:30N 43°60' W 002°24'510.4
2018-Jul-01 09:00N 44°05' W 002°23'510.7
2018-Jul-01 08:30N 44°10' W 002°23'510.9
2018-Jul-01 08:00N 44°16' W 002°22'610.7
2018-Jul-01 07:29N 44°21' W 002°22'54 7.8
2018-Jul-01 00:34N 45°15' W 002°30'8 3.2
2018-Jun-30 22:05N 45°20' W 002°39'0 3.6
2018-Jun-30 22:00N 45°20' W 002°40'8 3.7
2018-Jun-30 19:54N 45°24' W 002°49'17 1.3
2018-Jun-30 07:12N 45°37' W 003°03'34 1.1
2018-Jun-29 01:48N 45°55' W 003°44'14 0.7
2018-Jun-28 04:43N 46°04' W 003°30'35 1.3
2018-Jun-27 01:00N 45°33' W 003°08'53 2.3
2018-Jun-26 01:20N 44°53' W 002°17'1310.1
2018-Jun-26 00:05N 44°41' W 002°19'910.3
2018-Jun-25 23:15N 44°32' W 002°20'310.2
2018-Jun-25 22:59N 44°29' W 002°20'510.2
2018-Jun-25 22:30N 44°24' W 002°21'510.2
2018-Jun-25 22:00N 44°19' W 002°21'510.0
2018-Jun-25 21:30N 44°14' W 002°22'5 9.9
2018-Jun-25 21:00N 44°09' W 002°23'5 9.9
2018-Jun-25 20:30N 44°05' W 002°23'5 9.8
2018-Jun-25 20:00N 43°60' W 002°24'510.0
2018-Jun-25 19:30N 43°55' W 002°24'5 9.9
2018-Jun-25 19:00N 43°50' W 002°24'5 9.8
2018-Jun-25 18:30N 43°45' W 002°24'5 9.8
2018-Jun-25 18:00N 43°40' W 002°24'5 9.9
2018-Jun-25 17:30N 43°35' W 002°24'510.1
2018-Jun-25 17:00N 43°30' W 002°25'510.5
2018-Jun-25 16:30N 43°25' W 002°25'5 0.2
2018-Jun-24 08:25N 43°20' W 002°25'1 1.8
2018-Jun-24 08:00N 43°20' W 002°25'5 9.6
2018-Jun-24 07:30N 43°25' W 002°24'510.3
2018-Jun-24 07:01N 43°30' W 002°22'510.3
2018-Jun-24 06:31N 43°35' W 002°21'510.4
2018-Jun-24 06:00N 43°40' W 002°20'510.3
2018-Jun-24 05:31N 43°45' W 002°19'510.1
2018-Jun-24 05:01N 43°50' W 002°18'5 9.6
2018-Jun-24 04:31N 43°55' W 002°17'5 9.5
2018-Jun-24 04:00N 43°60' W 002°16'5 9.6
2018-Jun-24 03:30N 44°04' W 002°14'5 9.6
2018-Jun-24 03:01N 44°09' W 002°13'5 9.6
2018-Jun-24 02:31N 44°14' W 002°12'5 9.7
2018-Jun-24 02:00N 44°19' W 002°11'5 9.7
2018-Jun-24 01:31N 44°23' W 002°10'5 9.6
2018-Jun-24 01:01N 44°28' W 002°09'5 9.8
2018-Jun-24 00:31N 44°33' W 002°07'510.0
2018-Jun-24 00:00N 44°38' W 002°06'510.0
2018-Jun-23 23:31N 44°43' W 002°05'5 9.9
2018-Jun-23 23:00N 44°48' W 002°03'5 9.9
2018-Jun-23 22:31N 44°52' W 002°02'3 5.4
2018-Jun-23 22:00N 44°55' W 002°02'20 4.2
2018-Jun-23 17:14N 45°12' W 002°17'1 3.6
2018-Jun-23 16:52N 45°13' W 002°19'2 3.6
2018-Jun-23 16:25N 45°13' W 002°21'2 3.6
2018-Jun-23 15:46N 45°14' W 002°24'1 3.6
2018-Jun-23 15:25N 45°15' W 002°26'  

Dump ship's entire track history